首页
METAR-TAF:

METAR-TAF

机场 :

顿河畔罗斯托夫, 俄罗斯

纬度: 47-29-38N, 经度: 039-55-29E, 海拔: 65米

当前天气观测

该预报发布于38分钟前的15:00 UTC
风速8节,风向东北
温度 30°C
湿度 31%
气压 1012 hPa
能见度10公里或以上
1500米以下无云,无积雨云

METAR: URRP 181500Z 04004MPS CAVOK 30/11 Q1012 R05/CLRD70 TEMPO 34006G12MPS RMK QFE754/1005

时间: 18:38 (15:38 UTC)

预报

该预报发布于1小时和42分钟前的13:56 UTC
预报有效从18日的 15点(UTC)到 19日的 15点(UTC)
风速6节,风向北转东北,有时为16节阵风
能见度10公里或以上
散云层高于3000英尺
短暂存在
从 18日的 15点(UTC)到 19日的 15点(UTC)
风速10节,风向,有时为19节阵风
几率 40% :
短暂存在
从 19日的 12点(UTC)到 19日的 15点(UTC)
散云层高于3000英尺, 积雨云.
雷暴, 小雨

TAF: URRP 181356Z 1815/1915 03003G08MPS 9999 SCT030 TX31/1912Z TN18/1902Z TEMPO 1815/1915 08005G10MPS PROB40 TEMPO 1912/1915 -TSRA SCT030CB

超过4000个机场的气象观测和天气预报(METAR&TAF报告)。

可查询的气象台以黄色和红色小点在地图上表示。

将鼠标移到小点上方,可查看气象台名称。

然后点击查看天气观测和预报。

如需切换地图:点击带黑十字的绿色按钮放大地图;点击带横线的绿色按钮缩小地图;或者点击绿色箭头查看邻近地区的地图。


METAR-TAF: